sensor_id;sensor_type;location;lat;lon;timestamp;temperature;humidity
80743;SHT31;70142;50.894;6.052;2024-02-23T00:00:22;6.57;77.60
80743;SHT31;70142;50.894;6.052;2024-02-23T00:02:57;6.68;77.40
80743;SHT31;70142;50.894;6.052;2024-02-23T00:05:30;6.65;77.22
80743;SHT31;70142;50.894;6.052;2024-02-23T00:08:04;6.64;77.09
80743;SHT31;70142;50.894;6.052;2024-02-23T00:10:37;6.63;76.83
80743;SHT31;70142;50.894;6.052;2024-02-23T00:13:11;6.55;76.98
80743;SHT31;70142;50.894;6.052;2024-02-23T00:15:44;6.58;76.95
80743;SHT31;70142;50.894;6.052;2024-02-23T00:18:18;6.48;76.73
80743;SHT31;70142;50.894;6.052;2024-02-23T00:20:52;6.40;76.47
80743;SHT31;70142;50.894;6.052;2024-02-23T00:23:25;6.28;76.44
80743;SHT31;70142;50.894;6.052;2024-02-23T00:25:58;6.27;76.61
80743;SHT31;70142;50.894;6.052;2024-02-23T00:28:32;6.20;76.35
80743;SHT31;70142;50.894;6.052;2024-02-23T00:31:05;6.13;76.19
80743;SHT31;70142;50.894;6.052;2024-02-23T00:33:39;6.07;76.62
80743;SHT31;70142;50.894;6.052;2024-02-23T00:36:14;6.11;76.70
80743;SHT31;70142;50.894;6.052;2024-02-23T00:38:47;6.10;76.61
80743;SHT31;70142;50.894;6.052;2024-02-23T00:41:20;6.11;76.75
80743;SHT31;70142;50.894;6.052;2024-02-23T00:43:54;6.17;76.96
80743;SHT31;70142;50.894;6.052;2024-02-23T00:46:27;6.17;76.66
80743;SHT31;70142;50.894;6.052;2024-02-23T00:49:04;6.31;76.52
80743;SHT31;70142;50.894;6.052;2024-02-23T00:51:38;6.36;76.28
80743;SHT31;70142;50.894;6.052;2024-02-23T00:54:13;6.34;75.98
80743;SHT31;70142;50.894;6.052;2024-02-23T00:56:46;6.42;76.17
80743;SHT31;70142;50.894;6.052;2024-02-23T00:59:23;6.42;76.31
80743;SHT31;70142;50.894;6.052;2024-02-23T01:01:56;6.40;76.12
80743;SHT31;70142;50.894;6.052;2024-02-23T01:04:33;6.28;76.08
80743;SHT31;70142;50.894;6.052;2024-02-23T01:07:06;6.21;76.26
80743;SHT31;70142;50.894;6.052;2024-02-23T01:09:40;6.14;76.47
80743;SHT31;70142;50.894;6.052;2024-02-23T01:12:13;6.16;76.50
80743;SHT31;70142;50.894;6.052;2024-02-23T01:14:46;6.06;76.49
80743;SHT31;70142;50.894;6.052;2024-02-23T01:17:20;6.14;76.85
80743;SHT31;70142;50.894;6.052;2024-02-23T01:19:55;6.09;76.93
80743;SHT31;70142;50.894;6.052;2024-02-23T01:22:28;6.07;76.89
80743;SHT31;70142;50.894;6.052;2024-02-23T01:25:01;6.20;77.07
80743;SHT31;70142;50.894;6.052;2024-02-23T01:27:35;6.06;76.94
80743;SHT31;70142;50.894;6.052;2024-02-23T01:30:10;6.00;76.82
80743;SHT31;70142;50.894;6.052;2024-02-23T01:32:43;5.99;76.73
80743;SHT31;70142;50.894;6.052;2024-02-23T01:35:18;6.03;76.44
80743;SHT31;70142;50.894;6.052;2024-02-23T01:37:51;6.09;76.08
80743;SHT31;70142;50.894;6.052;2024-02-23T01:40:24;6.07;75.91
80743;SHT31;70142;50.894;6.052;2024-02-23T01:43:02;5.99;76.11
80743;SHT31;70142;50.894;6.052;2024-02-23T01:45:35;6.03;75.90
80743;SHT31;70142;50.894;6.052;2024-02-23T01:48:08;5.97;75.74
80743;SHT31;70142;50.894;6.052;2024-02-23T01:50:44;5.96;75.68
80743;SHT31;70142;50.894;6.052;2024-02-23T01:53:18;5.96;75.68
80743;SHT31;70142;50.894;6.052;2024-02-23T01:55:54;5.96;75.59
80743;SHT31;70142;50.894;6.052;2024-02-23T01:58:28;5.89;75.57
80743;SHT31;70142;50.894;6.052;2024-02-23T02:01:02;5.89;75.41
80743;SHT31;70142;50.894;6.052;2024-02-23T02:03:38;5.92;75.61
80743;SHT31;70142;50.894;6.052;2024-02-23T02:06:12;5.90;75.52
80743;SHT31;70142;50.894;6.052;2024-02-23T02:08:47;5.93;75.37
80743;SHT31;70142;50.894;6.052;2024-02-23T02:11:20;5.86;75.20
80743;SHT31;70142;50.894;6.052;2024-02-23T02:13:54;5.86;75.18
80743;SHT31;70142;50.894;6.052;2024-02-23T02:16:27;5.92;75.20
80743;SHT31;70142;50.894;6.052;2024-02-23T02:19:00;5.89;74.82
80743;SHT31;70142;50.894;6.052;2024-02-23T02:21:36;5.90;74.88
80743;SHT31;70142;50.894;6.052;2024-02-23T02:24:09;5.89;74.92
80743;SHT31;70142;50.894;6.052;2024-02-23T02:26:46;5.96;74.81
80743;SHT31;70142;50.894;6.052;2024-02-23T02:29:22;5.93;74.75
80743;SHT31;70142;50.894;6.052;2024-02-23T02:31:55;6.02;74.44
80743;SHT31;70142;50.894;6.052;2024-02-23T02:34:28;6.11;74.40
80743;SHT31;70142;50.894;6.052;2024-02-23T02:37:03;6.13;74.32
80743;SHT31;70142;50.894;6.052;2024-02-23T02:39:36;6.14;74.15
80743;SHT31;70142;50.894;6.052;2024-02-23T02:42:10;6.11;73.90
80743;SHT31;70142;50.894;6.052;2024-02-23T02:44:43;6.20;74.10
80743;SHT31;70142;50.894;6.052;2024-02-23T02:47:16;6.33;73.76
80743;SHT31;70142;50.894;6.052;2024-02-23T02:49:49;6.23;73.26
80743;SHT31;70142;50.894;6.052;2024-02-23T02:52:24;6.07;73.58
80743;SHT31;70142;50.894;6.052;2024-02-23T02:54:59;6.05;73.95
80743;SHT31;70142;50.894;6.052;2024-02-23T02:57:33;5.99;73.63
80743;SHT31;70142;50.894;6.052;2024-02-23T03:00:10;6.02;73.85
80743;SHT31;70142;50.894;6.052;2024-02-23T03:02:43;6.06;73.42
80743;SHT31;70142;50.894;6.052;2024-02-23T03:05:17;6.14;73.41
80743;SHT31;70142;50.894;6.052;2024-02-23T03:07:51;6.09;73.14
80743;SHT31;70142;50.894;6.052;2024-02-23T03:10:25;6.10;72.76
80743;SHT31;70142;50.894;6.052;2024-02-23T03:12:58;6.16;72.68
80743;SHT31;70142;50.894;6.052;2024-02-23T03:15:31;6.26;72.79
80743;SHT31;70142;50.894;6.052;2024-02-23T03:18:05;6.24;72.46
80743;SHT31;70142;50.894;6.052;2024-02-23T03:20:41;6.23;72.73
80743;SHT31;70142;50.894;6.052;2024-02-23T03:23:16;6.23;72.46
80743;SHT31;70142;50.894;6.052;2024-02-23T03:25:49;6.21;72.77
80743;SHT31;70142;50.894;6.052;2024-02-23T03:28:22;6.21;72.59
80743;SHT31;70142;50.894;6.052;2024-02-23T03:30:56;6.31;72.61
80743;SHT31;70142;50.894;6.052;2024-02-23T03:33:29;6.27;72.86
80743;SHT31;70142;50.894;6.052;2024-02-23T03:36:03;6.30;73.31
80743;SHT31;70142;50.894;6.052;2024-02-23T03:38:38;6.30;73.28
80743;SHT31;70142;50.894;6.052;2024-02-23T03:41:11;6.18;73.13
80743;SHT31;70142;50.894;6.052;2024-02-23T03:43:44;6.20;73.35
80743;SHT31;70142;50.894;6.052;2024-02-23T03:46:17;6.17;73.47
80743;SHT31;70142;50.894;6.052;2024-02-23T03:48:51;6.27;73.55
80743;SHT31;70142;50.894;6.052;2024-02-23T03:51:25;6.23;73.45
80743;SHT31;70142;50.894;6.052;2024-02-23T03:53:59;6.21;73.49
80743;SHT31;70142;50.894;6.052;2024-02-23T03:56:38;6.33;73.42
80743;SHT31;70142;50.894;6.052;2024-02-23T03:59:11;6.34;73.53
80743;SHT31;70142;50.894;6.052;2024-02-23T04:01:44;6.36;73.17
80743;SHT31;70142;50.894;6.052;2024-02-23T04:04:18;6.38;73.37
80743;SHT31;70142;50.894;6.052;2024-02-23T04:06:51;6.34;73.04
80743;SHT31;70142;50.894;6.052;2024-02-23T04:09:26;6.37;73.16
80743;SHT31;70142;50.894;6.052;2024-02-23T04:11:59;6.42;72.79
80743;SHT31;70142;50.894;6.052;2024-02-23T04:14:32;6.50;73.23
80743;SHT31;70142;50.894;6.052;2024-02-23T04:17:08;6.51;72.80
80743;SHT31;70142;50.894;6.052;2024-02-23T04:19:41;6.47;72.99
80743;SHT31;70142;50.894;6.052;2024-02-23T04:22:15;6.55;73.03
80743;SHT31;70142;50.894;6.052;2024-02-23T04:24:49;6.52;72.76
80743;SHT31;70142;50.894;6.052;2024-02-23T04:27:22;6.50;72.50
80743;SHT31;70142;50.894;6.052;2024-02-23T04:29:56;6.48;72.10
80743;SHT31;70142;50.894;6.052;2024-02-23T04:32:29;6.55;72.34
80743;SHT31;70142;50.894;6.052;2024-02-23T04:35:03;6.55;72.21
80743;SHT31;70142;50.894;6.052;2024-02-23T04:37:36;6.63;71.94
80743;SHT31;70142;50.894;6.052;2024-02-23T04:40:12;6.64;72.01
80743;SHT31;70142;50.894;6.052;2024-02-23T04:42:45;6.67;71.67
80743;SHT31;70142;50.894;6.052;2024-02-23T04:45:19;6.65;71.59
80743;SHT31;70142;50.894;6.052;2024-02-23T04:47:52;6.54;71.86
80743;SHT31;70142;50.894;6.052;2024-02-23T04:50:25;6.59;71.56
80743;SHT31;70142;50.894;6.052;2024-02-23T04:52:59;6.63;71.37
80743;SHT31;70142;50.894;6.052;2024-02-23T04:55:33;6.55;71.18
80743;SHT31;70142;50.894;6.052;2024-02-23T04:58:07;6.55;71.19
80743;SHT31;70142;50.894;6.052;2024-02-23T05:00:40;6.52;70.88
80743;SHT31;70142;50.894;6.052;2024-02-23T05:03:13;6.59;71.22
80743;SHT31;70142;50.894;6.052;2024-02-23T05:05:48;6.59;70.87
80743;SHT31;70142;50.894;6.052;2024-02-23T05:08:25;6.64;70.68
80743;SHT31;70142;50.894;6.052;2024-02-23T05:11:00;6.55;70.85
80743;SHT31;70142;50.894;6.052;2024-02-23T05:13:34;6.58;70.94
80743;SHT31;70142;50.894;6.052;2024-02-23T05:16:08;6.58;70.85
80743;SHT31;70142;50.894;6.052;2024-02-23T05:18:41;6.52;71.14
80743;SHT31;70142;50.894;6.052;2024-02-23T05:21:14;6.50;71.61
80743;SHT31;70142;50.894;6.052;2024-02-23T05:23:47;6.55;71.50
80743;SHT31;70142;50.894;6.052;2024-02-23T05:26:22;6.57;71.51
80743;SHT31;70142;50.894;6.052;2024-02-23T05:28:55;6.57;71.57
80743;SHT31;70142;50.894;6.052;2024-02-23T05:31:44;6.65;71.26
80743;SHT31;70142;50.894;6.052;2024-02-23T05:34:18;6.57;71.41
80743;SHT31;70142;50.894;6.052;2024-02-23T05:36:51;6.61;71.71
80743;SHT31;70142;50.894;6.052;2024-02-23T05:39:24;6.55;71.75
80743;SHT31;70142;50.894;6.052;2024-02-23T05:41:59;6.52;71.66
80743;SHT31;70142;50.894;6.052;2024-02-23T05:44:32;6.57;72.00
80743;SHT31;70142;50.894;6.052;2024-02-23T05:47:06;6.55;71.60
80743;SHT31;70142;50.894;6.052;2024-02-23T05:49:39;6.48;71.59
80743;SHT31;70142;50.894;6.052;2024-02-23T05:52:12;6.51;71.72
80743;SHT31;70142;50.894;6.052;2024-02-23T05:54:46;6.55;72.00
80743;SHT31;70142;50.894;6.052;2024-02-23T05:57:24;6.54;71.85
80743;SHT31;70142;50.894;6.052;2024-02-23T05:59:57;6.52;71.69
80743;SHT31;70142;50.894;6.052;2024-02-23T06:02:33;6.51;71.85
80743;SHT31;70142;50.894;6.052;2024-02-23T06:05:07;6.50;71.78
80743;SHT31;70142;50.894;6.052;2024-02-23T06:07:41;6.54;72.22
80743;SHT31;70142;50.894;6.052;2024-02-23T06:10:14;6.55;72.09
80743;SHT31;70142;50.894;6.052;2024-02-23T06:12:49;6.52;71.86
80743;SHT31;70142;50.894;6.052;2024-02-23T06:15:25;6.42;71.77
80743;SHT31;70142;50.894;6.052;2024-02-23T06:17:58;6.44;71.84
80743;SHT31;70142;50.894;6.052;2024-02-23T06:20:32;6.37;71.73
80743;SHT31;70142;50.894;6.052;2024-02-23T06:23:05;6.34;71.76
80743;SHT31;70142;50.894;6.052;2024-02-23T06:25:38;6.33;71.75
80743;SHT31;70142;50.894;6.052;2024-02-23T06:28:16;6.28;71.77
80743;SHT31;70142;50.894;6.052;2024-02-23T06:30:49;6.20;71.68
80743;SHT31;70142;50.894;6.052;2024-02-23T06:33:22;6.18;71.75
80743;SHT31;70142;50.894;6.052;2024-02-23T06:35:55;6.18;72.03
80743;SHT31;70142;50.894;6.052;2024-02-23T06:38:29;6.17;71.95
80743;SHT31;70142;50.894;6.052;2024-02-23T06:41:02;6.14;72.34
80743;SHT31;70142;50.894;6.052;2024-02-23T06:43:37;6.18;72.21
80743;SHT31;70142;50.894;6.052;2024-02-23T06:46:10;6.16;72.08
80743;SHT31;70142;50.894;6.052;2024-02-23T06:48:45;6.11;71.94
80743;SHT31;70142;50.894;6.052;2024-02-23T06:51:18;6.10;72.11
80743;SHT31;70142;50.894;6.052;2024-02-23T06:53:52;6.18;72.00
80743;SHT31;70142;50.894;6.052;2024-02-23T06:56:25;6.17;71.85
80743;SHT31;70142;50.894;6.052;2024-02-23T06:59:00;6.13;71.96
80743;SHT31;70142;50.894;6.052;2024-02-23T07:01:33;6.18;72.06
80743;SHT31;70142;50.894;6.052;2024-02-23T07:04:11;6.26;72.20
80743;SHT31;70142;50.894;6.052;2024-02-23T07:06:45;6.14;72.22
80743;SHT31;70142;50.894;6.052;2024-02-23T07:09:19;6.21;72.12
80743;SHT31;70142;50.894;6.052;2024-02-23T07:11:52;6.20;72.35
80743;SHT31;70142;50.894;6.052;2024-02-23T07:14:27;6.16;72.28
80743;SHT31;70142;50.894;6.052;2024-02-23T07:17:00;6.21;72.41
80743;SHT31;70142;50.894;6.052;2024-02-23T07:19:33;6.16;72.32
80743;SHT31;70142;50.894;6.052;2024-02-23T07:22:07;6.30;72.56
80743;SHT31;70142;50.894;6.052;2024-02-23T07:24:40;6.37;72.18
80743;SHT31;70142;50.894;6.052;2024-02-23T07:27:13;6.33;72.22
80743;SHT31;70142;50.894;6.052;2024-02-23T07:29:48;6.41;72.45
80743;SHT31;70142;50.894;6.052;2024-02-23T07:32:21;6.44;72.91
80743;SHT31;70142;50.894;6.052;2024-02-23T07:34:55;6.31;72.98
80743;SHT31;70142;50.894;6.052;2024-02-23T07:37:28;6.37;72.85
80743;SHT31;70142;50.894;6.052;2024-02-23T07:40:01;6.33;73.20
80743;SHT31;70142;50.894;6.052;2024-02-23T07:42:35;6.37;73.29
80743;SHT31;70142;50.894;6.052;2024-02-23T07:45:10;6.38;73.40
80743;SHT31;70142;50.894;6.052;2024-02-23T07:47:44;6.47;73.28
80743;SHT31;70142;50.894;6.052;2024-02-23T07:50:18;6.57;72.91
80743;SHT31;70142;50.894;6.052;2024-02-23T07:52:51;6.55;72.48
80743;SHT31;70142;50.894;6.052;2024-02-23T07:55:24;6.57;72.30
80743;SHT31;70142;50.894;6.052;2024-02-23T07:57:58;6.67;72.01
80743;SHT31;70142;50.894;6.052;2024-02-23T08:00:35;6.79;72.16
80743;SHT31;70142;50.894;6.052;2024-02-23T08:03:10;6.81;71.81
80743;SHT31;70142;50.894;6.052;2024-02-23T08:05:43;6.88;71.80
80743;SHT31;70142;50.894;6.052;2024-02-23T08:08:16;6.91;71.72
80743;SHT31;70142;50.894;6.052;2024-02-23T08:10:50;6.93;71.49
80743;SHT31;70142;50.894;6.052;2024-02-23T08:13:23;7.02;71.40
80743;SHT31;70142;50.894;6.052;2024-02-23T08:15:58;7.08;71.07
80743;SHT31;70142;50.894;6.052;2024-02-23T08:18:31;7.09;70.83
80743;SHT31;70142;50.894;6.052;2024-02-23T08:21:04;7.09;70.92
80743;SHT31;70142;50.894;6.052;2024-02-23T08:23:38;7.08;71.02
80743;SHT31;70142;50.894;6.052;2024-02-23T08:26:11;7.13;70.70
80743;SHT31;70142;50.894;6.052;2024-02-23T08:28:44;7.02;70.50
80743;SHT31;70142;50.894;6.052;2024-02-23T08:31:19;7.18;70.42
80743;SHT31;70142;50.894;6.052;2024-02-23T08:33:52;7.37;70.22
80743;SHT31;70142;50.894;6.052;2024-02-23T08:36:25;7.44;69.48
80743;SHT31;70142;50.894;6.052;2024-02-23T08:38:58;7.49;69.70
80743;SHT31;70142;50.894;6.052;2024-02-23T08:41:31;7.29;69.85
80743;SHT31;70142;50.894;6.052;2024-02-23T08:44:05;7.20;70.21
80743;SHT31;70142;50.894;6.052;2024-02-23T08:46:39;7.27;70.08
80743;SHT31;70142;50.894;6.052;2024-02-23T08:49:12;7.33;70.08
80743;SHT31;70142;50.894;6.052;2024-02-23T08:51:46;7.54;69.44
80743;SHT31;70142;50.894;6.052;2024-02-23T08:54:19;7.47;68.93
80743;SHT31;70142;50.894;6.052;2024-02-23T08:56:52;7.70;69.10
80743;SHT31;70142;50.894;6.052;2024-02-23T08:59:25;7.94;68.21
80743;SHT31;70142;50.894;6.052;2024-02-23T09:02:00;7.90;68.17
80743;SHT31;70142;50.894;6.052;2024-02-23T09:04:36;7.81;68.45
80743;SHT31;70142;50.894;6.052;2024-02-23T09:07:12;7.98;67.77
80743;SHT31;70142;50.894;6.052;2024-02-23T09:09:46;8.07;67.81
80743;SHT31;70142;50.894;6.052;2024-02-23T09:12:20;7.98;67.51
80743;SHT31;70142;50.894;6.052;2024-02-23T09:14:53;8.04;67.84
80743;SHT31;70142;50.894;6.052;2024-02-23T09:17:28;8.21;67.34
80743;SHT31;70142;50.894;6.052;2024-02-23T09:20:01;8.14;66.79
80743;SHT31;70142;50.894;6.052;2024-02-23T09:22:34;8.27;67.18
80743;SHT31;70142;50.894;6.052;2024-02-23T09:25:08;8.11;67.17
80743;SHT31;70142;50.894;6.052;2024-02-23T09:27:42;7.94;67.35
80743;SHT31;70142;50.894;6.052;2024-02-23T09:30:16;8.08;67.06
80743;SHT31;70142;50.894;6.052;2024-02-23T09:32:50;8.21;66.40
80743;SHT31;70142;50.894;6.052;2024-02-23T09:35:24;8.22;66.02
80743;SHT31;70142;50.894;6.052;2024-02-23T09:37:57;8.45;65.46
80743;SHT31;70142;50.894;6.052;2024-02-23T09:40:30;8.72;65.45
80743;SHT31;70142;50.894;6.052;2024-02-23T09:43:07;8.62;65.53
80743;SHT31;70142;50.894;6.052;2024-02-23T09:45:44;8.59;65.31
80743;SHT31;70142;50.894;6.052;2024-02-23T09:48:20;8.59;65.73
80743;SHT31;70142;50.894;6.052;2024-02-23T09:50:55;8.79;65.36
80743;SHT31;70142;50.894;6.052;2024-02-23T09:53:30;8.66;65.00
80743;SHT31;70142;50.894;6.052;2024-02-23T09:56:05;8.69;65.21
80743;SHT31;70142;50.894;6.052;2024-02-23T09:58:39;8.37;65.38
80743;SHT31;70142;50.894;6.052;2024-02-23T10:01:21;8.45;65.96
80743;SHT31;70142;50.894;6.052;2024-02-23T10:03:57;8.60;65.37
80743;SHT31;70142;50.894;6.052;2024-02-23T10:06:31;8.42;66.07
80743;SHT31;70142;50.894;6.052;2024-02-23T10:09:04;8.50;65.47
80743;SHT31;70142;50.894;6.052;2024-02-23T10:11:38;8.34;65.73
80743;SHT31;70142;50.894;6.052;2024-02-23T10:14:11;8.35;66.09
80743;SHT31;70142;50.894;6.052;2024-02-23T10:16:44;8.50;65.95
80743;SHT31;70142;50.894;6.052;2024-02-23T10:19:19;8.63;66.16
80743;SHT31;70142;50.894;6.052;2024-02-23T10:21:52;8.99;65.73
80743;SHT31;70142;50.894;6.052;2024-02-23T10:24:25;8.93;65.16
80743;SHT31;70142;50.894;6.052;2024-02-23T10:27:00;8.87;65.20
80743;SHT31;70142;50.894;6.052;2024-02-23T10:29:34;8.82;65.38
80743;SHT31;70142;50.894;6.052;2024-02-23T10:32:14;8.89;65.54
80743;SHT31;70142;50.894;6.052;2024-02-23T10:34:50;8.90;65.85
80743;SHT31;70142;50.894;6.052;2024-02-23T10:37:26;8.96;65.15
80743;SHT31;70142;50.894;6.052;2024-02-23T10:40:01;8.93;65.08
80743;SHT31;70142;50.894;6.052;2024-02-23T10:42:38;8.83;64.92
80743;SHT31;70142;50.894;6.052;2024-02-23T10:45:12;8.79;65.42
80743;SHT31;70142;50.894;6.052;2024-02-23T10:47:46;8.82;65.04
80743;SHT31;70142;50.894;6.052;2024-02-23T10:50:22;8.72;64.66
80743;SHT31;70142;50.894;6.052;2024-02-23T10:52:57;8.83;65.42
80743;SHT31;70142;50.894;6.052;2024-02-23T10:55:32;8.93;65.00
80743;SHT31;70142;50.894;6.052;2024-02-23T10:58:06;8.89;65.25
80743;SHT31;70142;50.894;6.052;2024-02-23T11:00:42;8.87;64.63
80743;SHT31;70142;50.894;6.052;2024-02-23T11:03:19;8.62;65.30
80743;SHT31;70142;50.894;6.052;2024-02-23T11:05:54;8.56;64.78
80743;SHT31;70142;50.894;6.052;2024-02-23T11:08:28;8.50;64.61
80743;SHT31;70142;50.894;6.052;2024-02-23T11:11:07;8.60;65.21
80743;SHT31;70142;50.894;6.052;2024-02-23T11:13:43;8.70;64.60
80743;SHT31;70142;50.894;6.052;2024-02-23T11:16:22;8.72;64.88
80743;SHT31;70142;50.894;6.052;2024-02-23T11:19:04;8.72;65.26
80743;SHT31;70142;50.894;6.052;2024-02-23T11:21:39;8.69;64.74
80743;SHT31;70142;50.894;6.052;2024-02-23T11:24:15;8.66;65.43
80743;SHT31;70142;50.894;6.052;2024-02-23T11:26:49;8.73;65.24
80743;SHT31;70142;50.894;6.052;2024-02-23T11:29:26;8.77;65.12
80743;SHT31;70142;50.894;6.052;2024-02-23T11:32:00;8.84;65.87
80743;SHT31;70142;50.894;6.052;2024-02-23T11:34:39;8.68;65.40
80743;SHT31;70142;50.894;6.052;2024-02-23T11:37:18;8.75;65.88
80743;SHT31;70142;50.894;6.052;2024-02-23T11:39:51;8.79;65.94
80743;SHT31;70142;50.894;6.052;2024-02-23T11:42:27;9.10;65.48
80743;SHT31;70142;50.894;6.052;2024-02-23T11:45:01;9.30;65.11
80743;SHT31;70142;50.894;6.052;2024-02-23T11:47:34;9.51;64.66
80743;SHT31;70142;50.894;6.052;2024-02-23T11:50:09;9.26;64.65
80743;SHT31;70142;50.894;6.052;2024-02-23T11:52:44;9.27;65.33
80743;SHT31;70142;50.894;6.052;2024-02-23T11:55:19;9.31;64.98
80743;SHT31;70142;50.894;6.052;2024-02-23T11:57:54;9.09;64.80
80743;SHT31;70142;50.894;6.052;2024-02-23T12:00:41;9.24;65.38
80743;SHT31;70142;50.894;6.052;2024-02-23T12:03:16;9.33;64.99
80743;SHT31;70142;50.894;6.052;2024-02-23T12:05:50;9.27;64.75
80743;SHT31;70142;50.894;6.052;2024-02-23T12:08:26;9.28;65.27
80743;SHT31;70142;50.894;6.052;2024-02-23T12:10:59;9.30;64.11
80743;SHT31;70142;50.894;6.052;2024-02-23T12:13:33;9.28;64.65
80743;SHT31;70142;50.894;6.052;2024-02-23T12:16:08;9.34;64.62
80743;SHT31;70142;50.894;6.052;2024-02-23T12:18:41;9.51;63.39
80743;SHT31;70142;50.894;6.052;2024-02-23T12:21:14;9.41;63.53
80743;SHT31;70142;50.894;6.052;2024-02-23T12:23:49;9.65;63.53
80743;SHT31;70142;50.894;6.052;2024-02-23T12:26:23;9.71;63.08
80743;SHT31;70142;50.894;6.052;2024-02-23T12:29:00;9.67;62.51
80743;SHT31;70142;50.894;6.052;2024-02-23T12:31:33;9.62;62.84
80743;SHT31;70142;50.894;6.052;2024-02-23T12:34:11;9.61;62.65
80743;SHT31;70142;50.894;6.052;2024-02-23T12:36:46;9.78;63.16
80743;SHT31;70142;50.894;6.052;2024-02-23T12:39:20;9.98;62.04
80743;SHT31;70142;50.894;6.052;2024-02-23T12:41:53;10.26;60.64
80743;SHT31;70142;50.894;6.052;2024-02-23T12:44:29;10.16;61.14
80743;SHT31;70142;50.894;6.052;2024-02-23T12:47:02;9.89;60.51
80743;SHT31;70142;50.894;6.052;2024-02-23T12:49:36;9.82;61.72
80743;SHT31;70142;50.894;6.052;2024-02-23T12:52:11;9.86;61.71
80743;SHT31;70142;50.894;6.052;2024-02-23T12:54:46;10.01;61.68
80743;SHT31;70142;50.894;6.052;2024-02-23T12:57:23;10.05;60.58
80743;SHT31;70142;50.894;6.052;2024-02-23T12:59:56;9.85;61.16
80743;SHT31;70142;50.894;6.052;2024-02-23T13:02:29;10.05;60.44
80743;SHT31;70142;50.894;6.052;2024-02-23T13:05:03;9.99;61.17
80743;SHT31;70142;50.894;6.052;2024-02-23T13:07:37;10.10;61.37
80743;SHT31;70142;50.894;6.052;2024-02-23T13:10:14;10.20;61.09
80743;SHT31;70142;50.894;6.052;2024-02-23T13:12:50;10.03;59.78
80743;SHT31;70142;50.894;6.052;2024-02-23T13:15:23;10.15;60.04
80743;SHT31;70142;50.894;6.052;2024-02-23T13:17:58;10.20;60.21
80743;SHT31;70142;50.894;6.052;2024-02-23T13:20:31;9.94;60.22
80743;SHT31;70142;50.894;6.052;2024-02-23T13:23:07;10.05;60.70
80743;SHT31;70142;50.894;6.052;2024-02-23T13:25:43;9.94;61.00
80743;SHT31;70142;50.894;6.052;2024-02-23T13:28:17;10.47;61.02
80743;SHT31;70142;50.894;6.052;2024-02-23T13:30:50;10.55;61.30
80743;SHT31;70142;50.894;6.052;2024-02-23T13:33:23;10.49;62.10
80743;SHT31;70142;50.894;6.052;2024-02-23T13:36:00;10.73;61.99
80743;SHT31;70142;50.894;6.052;2024-02-23T13:38:33;11.38;60.99
80743;SHT31;70142;50.894;6.052;2024-02-23T13:41:11;11.30;60.09
80743;SHT31;70142;50.894;6.052;2024-02-23T13:43:44;11.08;60.82
80743;SHT31;70142;50.894;6.052;2024-02-23T13:46:18;11.44;59.89
80743;SHT31;70142;50.894;6.052;2024-02-23T13:49:02;10.99;59.59
80743;SHT31;70142;50.894;6.052;2024-02-23T13:51:37;11.01;59.37
80743;SHT31;70142;50.894;6.052;2024-02-23T13:54:11;11.07;59.76
80743;SHT31;70142;50.894;6.052;2024-02-23T13:56:45;11.22;59.45
80743;SHT31;70142;50.894;6.052;2024-02-23T13:59:22;10.80;60.03
80743;SHT31;70142;50.894;6.052;2024-02-23T14:01:55;10.36;61.41
80743;SHT31;70142;50.894;6.052;2024-02-23T14:04:28;10.12;61.56
80743;SHT31;70142;50.894;6.052;2024-02-23T14:07:02;10.22;61.99
80743;SHT31;70142;50.894;6.052;2024-02-23T14:09:36;10.22;62.23
80743;SHT31;70142;50.894;6.052;2024-02-23T14:12:10;10.96;60.69
80743;SHT31;70142;50.894;6.052;2024-02-23T14:14:44;10.84;60.09
80743;SHT31;70142;50.894;6.052;2024-02-23T14:17:17;10.19;60.90
80743;SHT31;70142;50.894;6.052;2024-02-23T14:19:50;9.82;62.64
80743;SHT31;70142;50.894;6.052;2024-02-23T14:22:24;9.67;62.99
80743;SHT31;70142;50.894;6.052;2024-02-23T14:24:57;9.78;63.65
80743;SHT31;70142;50.894;6.052;2024-02-23T14:27:32;10.06;63.35
80743;SHT31;70142;50.894;6.052;2024-02-23T14:30:06;11.10;61.25
80743;SHT31;70142;50.894;6.052;2024-02-23T14:32:40;11.21;60.18
80743;SHT31;70142;50.894;6.052;2024-02-23T14:36:02;10.26;62.74
80743;SHT31;70142;50.894;6.052;2024-02-23T14:38:35;9.77;64.32
80743;SHT31;70142;50.894;6.052;2024-02-23T14:41:09;9.67;66.20
80743;SHT31;70142;50.894;6.052;2024-02-23T14:43:42;9.68;67.16
80743;SHT31;70142;50.894;6.052;2024-02-23T14:46:15;9.91;67.61
80743;SHT31;70142;50.894;6.052;2024-02-23T14:48:49;10.63;67.65
80743;SHT31;70142;50.894;6.052;2024-02-23T14:51:23;10.84;67.34
80743;SHT31;70142;50.894;6.052;2024-02-23T14:53:56;10.49;66.92
80743;SHT31;70142;50.894;6.052;2024-02-23T14:56:29;10.32;65.15
80743;SHT31;70142;50.894;6.052;2024-02-23T14:59:03;9.82;67.35
80743;SHT31;70142;50.894;6.052;2024-02-23T15:01:39;10.73;65.04
80743;SHT31;70142;50.894;6.052;2024-02-23T15:04:13;11.57;62.09
80743;SHT31;70142;50.894;6.052;2024-02-23T15:06:51;11.99;60.23
80743;SHT31;70142;50.894;6.052;2024-02-23T15:09:24;12.07;59.88
80743;SHT31;70142;50.894;6.052;2024-02-23T15:11:58;12.06;57.24
80743;SHT31;70142;50.894;6.052;2024-02-23T15:14:31;11.65;57.09
80743;SHT31;70142;50.894;6.052;2024-02-23T15:17:04;11.89;57.32
80743;SHT31;70142;50.894;6.052;2024-02-23T15:19:38;12.06;56.60
80743;SHT31;70142;50.894;6.052;2024-02-23T15:22:12;11.62;56.10
80743;SHT31;70142;50.894;6.052;2024-02-23T15:24:46;11.36;56.91
80743;SHT31;70142;50.894;6.052;2024-02-23T15:27:21;11.46;57.35
80743;SHT31;70142;50.894;6.052;2024-02-23T15:29:54;11.35;56.54
80743;SHT31;70142;50.894;6.052;2024-02-23T15:32:27;10.96;57.68
80743;SHT31;70142;50.894;6.052;2024-02-23T15:35:01;10.73;58.72
80743;SHT31;70142;50.894;6.052;2024-02-23T15:37:37;10.73;59.70
80743;SHT31;70142;50.894;6.052;2024-02-23T15:40:11;10.52;59.84
80743;SHT31;70142;50.894;6.052;2024-02-23T15:42:44;10.29;60.37
80743;SHT31;70142;50.894;6.052;2024-02-23T15:45:17;10.08;60.89
80743;SHT31;70142;50.894;6.052;2024-02-23T15:47:51;10.15;60.91
80743;SHT31;70142;50.894;6.052;2024-02-23T15:50:24;10.12;61.26
80743;SHT31;70142;50.894;6.052;2024-02-23T15:53:20;10.09;61.99
80743;SHT31;70142;50.894;6.052;2024-02-23T15:55:54;10.08;62.22
80743;SHT31;70142;50.894;6.052;2024-02-23T15:58:27;9.91;62.51
80743;SHT31;70142;50.894;6.052;2024-02-23T16:01:01;9.81;63.46
80743;SHT31;70142;50.894;6.052;2024-02-23T16:03:34;9.88;63.88
80743;SHT31;70142;50.894;6.052;2024-02-23T16:06:07;9.99;63.65
80743;SHT31;70142;50.894;6.052;2024-02-23T16:08:43;9.91;63.99
80743;SHT31;70142;50.894;6.052;2024-02-23T16:11:17;9.68;64.53
80743;SHT31;70142;50.894;6.052;2024-02-23T16:13:50;9.79;64.84
80743;SHT31;70142;50.894;6.052;2024-02-23T16:16:26;9.74;64.47
80743;SHT31;70142;50.894;6.052;2024-02-23T16:18:59;9.70;64.22
80743;SHT31;70142;50.894;6.052;2024-02-23T16:21:33;9.74;64.28
80743;SHT31;70142;50.894;6.052;2024-02-23T16:24:10;9.86;64.33
80743;SHT31;70142;50.894;6.052;2024-02-23T16:26:43;9.84;64.40